createdAt,value
2023-05-18T00:02:04.334Z,65.96
2023-05-18T00:04:37.651Z,66.36
2023-05-18T00:07:07.239Z,66.30
2023-05-18T00:09:37.599Z,66.40
2023-05-18T00:14:48.978Z,66.44
2023-05-18T00:17:22.933Z,66.46
2023-05-18T00:19:59.136Z,66.61
2023-05-18T00:26:13.609Z,66.50
2023-05-18T00:28:42.303Z,66.39
2023-05-18T00:31:24.202Z,66.31
2023-05-18T00:33:52.952Z,66.76
2023-05-18T00:40:33.762Z,66.74
2023-05-18T00:50:53.987Z,67.00
2023-05-18T00:53:23.652Z,66.84
2023-05-18T00:55:53.696Z,67.16
2023-05-18T00:58:21.880Z,66.98
2023-05-18T01:00:50.556Z,66.87
2023-05-18T01:03:21.393Z,67.04
2023-05-18T01:05:50.486Z,67.16
2023-05-18T01:08:20.078Z,67.12
2023-05-18T01:10:56.479Z,67.18
2023-05-18T01:13:36.684Z,67.19
2023-05-18T01:16:10.197Z,67.33
2023-05-18T01:18:50.937Z,67.32
2023-05-18T01:21:46.693Z,67.32
2023-05-18T01:24:26.179Z,67.35
2023-05-18T01:26:57.733Z,67.45
2023-05-18T01:29:29.444Z,67.38
2023-05-18T01:31:58.793Z,67.53
2023-05-18T01:34:27.710Z,67.67
2023-05-18T01:36:57.857Z,68.03
2023-05-18T01:39:27.472Z,67.82
2023-05-18T01:42:04.016Z,67.93
2023-05-18T01:44:58.862Z,67.89
2023-05-18T01:47:31.582Z,67.91
2023-05-18T01:50:22.497Z,67.69
2023-05-18T01:53:23.274Z,67.69
2023-05-18T01:55:55.951Z,67.82
2023-05-18T01:58:45.831Z,67.82
2023-05-18T02:01:20.368Z,67.86
2023-05-18T02:03:51.531Z,67.95
2023-05-18T02:06:20.730Z,67.90
2023-05-18T02:08:51.058Z,68.11
2023-05-18T02:11:19.472Z,68.10
2023-05-18T02:13:48.308Z,67.93
2023-05-18T02:16:17.472Z,68.04
2023-05-18T02:18:45.991Z,68.24
2023-05-18T02:21:14.788Z,68.23
2023-05-18T02:23:43.171Z,68.38
2023-05-18T02:26:11.748Z,68.12
2023-05-18T02:28:40.829Z,68.15
2023-05-18T02:31:12.027Z,68.20
2023-05-18T02:33:41.775Z,68.27
2023-05-18T02:36:15.492Z,68.43
2023-05-18T02:38:44.775Z,68.20
2023-05-18T02:41:14.323Z,68.25
2023-05-18T02:43:42.660Z,68.37
2023-05-18T02:46:11.746Z,68.50
2023-05-18T02:48:40.254Z,68.38
2023-05-18T02:51:08.727Z,68.51
2023-05-18T02:53:38.796Z,68.47
2023-05-18T02:56:07.643Z,68.64
2023-05-18T02:58:36.638Z,68.83
2023-05-18T03:01:09.220Z,68.71
2023-05-18T03:03:57.976Z,68.55
2023-05-18T03:06:47.001Z,68.73
2023-05-18T03:09:17.212Z,68.99
2023-05-18T03:11:46.032Z,68.97
2023-05-18T03:14:14.502Z,69.02
2023-05-18T03:16:42.857Z,68.91
2023-05-18T03:19:11.175Z,68.65
2023-05-18T03:21:39.723Z,69.15
2023-05-18T03:24:08.094Z,69.06
2023-05-18T03:26:36.357Z,68.75
2023-05-18T03:29:04.633Z,68.91
2023-05-18T03:31:32.998Z,69.04
2023-05-18T03:34:01.965Z,69.17
2023-05-18T03:36:30.251Z,69.15
2023-05-18T03:38:58.545Z,69.40
2023-05-18T03:41:26.830Z,69.48
2023-05-18T03:43:55.047Z,69.40
2023-05-18T03:46:23.572Z,69.32
2023-05-18T03:48:54.064Z,69.17
2023-05-18T03:51:22.432Z,69.22
2023-05-18T03:53:50.683Z,69.41
2023-05-18T03:56:18.963Z,69.10
2023-05-18T03:58:47.151Z,69.57
2023-05-18T04:01:19.058Z,69.55
2023-05-18T04:03:47.459Z,69.50
2023-05-18T04:06:15.844Z,69.47
2023-05-18T04:08:46.805Z,69.71
2023-05-18T04:11:15.297Z,69.78
2023-05-18T04:13:44.213Z,69.96
2023-05-18T04:16:13.690Z,69.95
2023-05-18T04:18:43.438Z,69.84
2023-05-18T04:21:19.667Z,70.21
2023-05-18T04:23:48.526Z,70.25
2023-05-18T04:26:22.261Z,70.11
2023-05-18T04:28:53.054Z,70.26
2023-05-18T04:31:22.717Z,70.31
2023-05-18T04:33:53.667Z,70.29
2023-05-18T04:36:26.040Z,70.47
2023-05-18T04:38:58.766Z,70.59
2023-05-18T04:41:27.216Z,70.32
2023-05-18T04:43:56.232Z,70.20
2023-05-18T04:46:24.694Z,70.52
2023-05-18T04:48:58.102Z,70.50
2023-05-18T04:51:26.469Z,70.85
2023-05-18T04:53:56.503Z,70.70
2023-05-18T04:56:25.758Z,71.02
2023-05-18T04:58:59.518Z,71.45
2023-05-18T05:01:28.606Z,71.48
2023-05-18T05:03:59.895Z,71.56
2023-05-18T05:06:29.521Z,71.38
2023-05-18T05:08:58.341Z,71.25
2023-05-18T05:11:26.636Z,71.56
2023-05-18T05:13:54.941Z,71.86
2023-05-18T05:16:23.298Z,71.88
2023-05-18T05:18:51.585Z,71.92
2023-05-18T05:21:19.976Z,72.09
2023-05-18T05:23:48.278Z,71.78
2023-05-18T05:26:16.642Z,71.75
2023-05-18T05:28:44.979Z,71.22
2023-05-18T05:31:13.385Z,70.43
2023-05-18T05:33:42.119Z,70.38
2023-05-18T05:36:10.367Z,70.23
2023-05-18T05:38:38.610Z,70.25
2023-05-18T05:41:06.797Z,70.79
2023-05-18T05:43:35.509Z,70.82
2023-05-18T05:46:03.754Z,71.05
2023-05-18T05:48:32.008Z,70.04
2023-05-18T05:51:00.356Z,69.46
2023-05-18T05:53:29.946Z,69.97
2023-05-18T05:55:58.241Z,69.72
2023-05-18T05:58:26.585Z,70.49
2023-05-18T06:00:54.991Z,70.16
2023-05-18T06:03:23.418Z,69.04
2023-05-18T06:05:52.027Z,68.52
2023-05-18T06:08:20.880Z,67.83
2023-05-18T06:10:49.144Z,68.14
2023-05-18T06:13:17.608Z,68.19
2023-05-18T06:15:45.860Z,68.08
2023-05-18T06:18:14.100Z,67.81
2023-05-18T06:20:42.534Z,67.11
2023-05-18T06:23:10.678Z,67.40
2023-05-18T06:25:38.855Z,67.84
2023-05-18T06:28:07.309Z,67.76
2023-05-18T06:30:35.523Z,66.89
2023-05-18T06:33:04.698Z,65.95
2023-05-18T06:35:34.097Z,65.38
2023-05-18T06:38:02.270Z,64.75
2023-05-18T06:40:31.380Z,64.01
2023-05-18T06:42:59.641Z,63.96
2023-05-18T06:45:27.862Z,63.39
2023-05-18T06:47:56.878Z,62.09
2023-05-18T06:50:25.152Z,61.86
2023-05-18T06:52:53.588Z,62.27
2023-05-18T06:55:22.531Z,61.53
2023-05-18T06:57:51.630Z,61.06
2023-05-18T07:00:20.978Z,60.84
2023-05-18T07:02:49.279Z,59.95
2023-05-18T07:05:17.892Z,58.87
2023-05-18T07:07:46.255Z,59.18
2023-05-18T07:10:14.489Z,58.92
2023-05-18T07:12:42.995Z,58.84
2023-05-18T07:15:11.829Z,59.01
2023-05-18T07:17:40.156Z,58.83
2023-05-18T07:20:09.041Z,58.63
2023-05-18T07:22:37.358Z,57.48
2023-05-18T07:25:05.854Z,57.43
2023-05-18T07:27:34.649Z,56.80
2023-05-18T07:30:02.992Z,56.04
2023-05-18T07:32:31.244Z,56.14
2023-05-18T07:34:59.638Z,56.00
2023-05-18T07:37:27.848Z,55.85
2023-05-18T07:39:56.202Z,55.88
2023-05-18T07:42:24.596Z,55.84
2023-05-18T07:44:52.834Z,56.20
2023-05-18T07:47:21.888Z,55.76
2023-05-18T07:49:50.726Z,54.20
2023-05-18T07:52:19.001Z,53.18
2023-05-18T07:54:47.641Z,53.83
2023-05-18T07:57:15.904Z,54.10
2023-05-18T07:59:44.233Z,54.18
2023-05-18T08:02:12.604Z,54.40
2023-05-18T08:04:42.645Z,54.09
2023-05-18T08:07:10.880Z,53.71
2023-05-18T08:09:39.821Z,53.15
2023-05-18T08:12:08.403Z,53.26
2023-05-18T08:14:36.830Z,52.95
2023-05-18T08:17:05.384Z,52.39
2023-05-18T08:19:33.872Z,52.59
2023-05-18T08:22:02.161Z,52.88
2023-05-18T08:24:30.333Z,53.19
2023-05-18T08:26:58.642Z,52.22
2023-05-18T08:29:26.906Z,51.90
2023-05-18T08:31:55.097Z,50.75
2023-05-18T08:34:23.626Z,49.95
2023-05-18T08:36:52.764Z,50.85
2023-05-18T08:39:22.702Z,51.45
2023-05-18T08:42:01.398Z,52.03
2023-05-18T08:45:03.543Z,51.90
2023-05-18T08:47:33.375Z,51.29
2023-05-18T08:50:02.671Z,50.42
2023-05-18T08:52:36.830Z,50.35
2023-05-18T08:55:11.837Z,49.87
2023-05-18T08:57:44.765Z,50.12
2023-05-18T09:00:15.418Z,50.36
2023-05-18T09:02:43.831Z,50.19
2023-05-18T09:05:13.792Z,50.64
2023-05-18T09:07:43.860Z,50.39
2023-05-18T09:10:12.459Z,49.99
2023-05-18T09:12:43.814Z,50.09
2023-05-18T09:15:13.842Z,50.25
2023-05-18T09:17:42.316Z,50.27
2023-05-18T09:20:10.812Z,49.70
2023-05-18T09:22:43.128Z,48.85
2023-05-18T09:25:12.097Z,48.40
2023-05-18T09:27:40.705Z,48.38
2023-05-18T09:30:11.707Z,47.05
2023-05-18T09:32:40.138Z,48.06
2023-05-18T09:35:09.630Z,49.15
2023-05-18T09:37:42.406Z,47.74
2023-05-18T09:40:11.235Z,47.35
2023-05-18T09:42:41.842Z,47.85
2023-05-18T09:45:19.619Z,47.00
2023-05-18T09:47:50.813Z,48.30
2023-05-18T09:50:24.256Z,48.77
2023-05-18T09:52:52.560Z,48.32
2023-05-18T09:55:21.165Z,48.67
2023-05-18T09:57:50.827Z,48.35
2023-05-18T10:00:22.304Z,47.38
2023-05-18T10:02:54.656Z,47.08
2023-05-18T10:05:23.907Z,45.50
2023-05-18T10:07:52.312Z,45.92
2023-05-18T10:10:22.698Z,46.17
2023-05-18T10:12:52.201Z,46.55
2023-05-18T10:15:22.758Z,46.46
2023-05-18T10:17:55.688Z,46.60
2023-05-18T10:20:27.087Z,46.33
2023-05-18T10:22:58.918Z,46.22
2023-05-18T10:25:27.827Z,45.36
2023-05-18T10:27:58.490Z,46.89
2023-05-18T10:30:27.828Z,47.70
2023-05-18T10:32:57.450Z,47.55
2023-05-18T10:35:28.625Z,48.38
2023-05-18T10:37:59.487Z,48.83
2023-05-18T10:40:29.266Z,46.41
2023-05-18T10:42:58.999Z,46.19
2023-05-18T10:45:28.067Z,46.92
2023-05-18T12:07:36.147Z,38.94
2023-05-18T12:10:07.184Z,38.91
2023-05-18T12:12:35.018Z,39.65
2023-05-18T12:15:07.590Z,39.46
2023-05-18T12:17:42.846Z,39.16
2023-05-18T12:20:12.602Z,39.43
2023-05-18T12:22:41.389Z,40.55
2023-05-18T12:25:09.499Z,39.64
2023-05-18T12:27:43.263Z,37.45
2023-05-18T12:30:19.219Z,38.52
2023-05-18T12:32:53.754Z,38.98
2023-05-18T12:35:25.756Z,38.91
2023-05-18T12:37:57.751Z,38.76
2023-05-18T12:40:25.170Z,39.72
2023-05-18T12:42:54.236Z,40.14
2023-05-18T12:45:24.019Z,39.06
2023-05-18T12:47:53.875Z,39.36
2023-05-18T12:50:22.049Z,38.76
2023-05-18T12:52:49.859Z,38.64
2023-05-18T12:55:21.468Z,38.62
2023-05-18T12:58:19.378Z,38.94
2023-05-18T13:00:48.436Z,38.33
2023-05-18T13:03:18.753Z,37.63
2023-05-18T13:06:02.318Z,37.86
2023-05-18T13:08:32.590Z,37.52
2023-05-18T13:11:13.527Z,38.23
2023-05-18T13:14:05.508Z,38.55
2023-05-18T13:16:39.165Z,38.16
2023-05-18T13:19:08.939Z,38.64
2023-05-18T13:21:36.271Z,39.54
2023-05-18T13:24:04.387Z,40.22
2023-05-18T13:26:31.360Z,41.15
2023-05-18T13:28:59.591Z,40.87
2023-05-18T13:31:29.015Z,41.13
2023-05-18T13:33:56.798Z,40.16
2023-05-18T13:36:24.001Z,40.63
2023-05-18T13:38:51.772Z,40.88
2023-05-18T13:41:18.804Z,40.97
2023-05-18T13:43:45.757Z,41.08
2023-05-18T13:46:12.857Z,41.30
2023-05-18T13:48:39.978Z,40.86
2023-05-18T13:51:07.117Z,41.08
2023-05-18T13:53:34.026Z,40.73
2023-05-18T13:56:01.001Z,40.57
2023-05-18T13:58:27.958Z,40.40
2023-05-18T14:00:54.930Z,40.82
2023-05-18T14:03:23.725Z,39.56
2023-05-18T14:05:50.846Z,39.09
2023-05-18T14:08:22.675Z,40.31
2023-05-18T14:10:51.194Z,40.15
2023-05-18T14:13:18.291Z,39.94
2023-05-18T14:15:45.367Z,40.91
2023-05-18T14:18:12.821Z,41.08
2023-05-18T14:20:40.388Z,39.72
2023-05-18T14:23:09.611Z,40.07
2023-05-18T14:25:37.122Z,39.91
2023-05-18T14:28:21.174Z,40.55
2023-05-18T14:30:49.209Z,40.22
2023-05-18T14:33:16.555Z,40.46
2023-05-18T14:35:43.536Z,39.70
2023-05-18T14:39:39.945Z,39.98
2023-05-18T14:54:06.691Z,41.21
2023-05-18T14:56:34.972Z,41.00
2023-05-18T14:59:02.195Z,40.99
2023-05-18T15:01:34.398Z,40.82
2023-05-18T15:04:06.305Z,40.78
2023-05-18T15:06:33.579Z,40.97
2023-05-18T15:09:05.676Z,40.74
2023-05-18T15:11:33.116Z,40.78
2023-05-18T15:14:20.397Z,40.50
2023-05-18T15:16:50.295Z,41.16
2023-05-18T15:19:19.103Z,41.22
2023-05-18T15:21:48.135Z,40.97
2023-05-18T15:24:18.139Z,40.85
2023-05-18T15:27:01.640Z,40.97
2023-05-18T15:29:32.177Z,41.49
2023-05-18T15:31:59.689Z,40.97
2023-05-18T15:34:27.771Z,41.91
2023-05-18T15:36:58.218Z,41.73
2023-05-18T15:39:25.180Z,41.89
2023-05-18T15:41:52.572Z,41.99
2023-05-18T15:44:20.287Z,42.43
2023-05-18T15:46:50.670Z,42.74
2023-05-18T15:49:18.392Z,42.63
2023-05-18T15:51:45.681Z,42.09
2023-05-18T15:54:17.550Z,42.07
2023-05-18T15:56:45.580Z,42.37
2023-05-18T15:59:24.074Z,42.44
2023-05-18T16:01:51.832Z,42.94
2023-05-18T16:04:19.529Z,43.15
2023-05-18T16:06:46.796Z,42.92
2023-05-18T16:09:17.062Z,42.95
2023-05-18T16:11:44.373Z,43.04
2023-05-18T16:14:11.637Z,42.93
2023-05-18T16:16:38.885Z,43.33
2023-05-18T16:19:29.110Z,43.21
2023-05-18T16:21:56.504Z,43.23
2023-05-18T16:28:01.286Z,43.45
2023-05-18T16:30:51.955Z,43.68
2023-05-18T16:33:19.603Z,43.72
2023-05-18T16:35:46.985Z,44.24
2023-05-18T16:38:14.060Z,44.46
2023-05-18T16:40:40.984Z,44.50
2023-05-18T16:43:08.567Z,44.70
2023-05-18T16:45:36.282Z,45.25
2023-05-18T16:48:03.380Z,45.32
2023-05-18T16:50:31.338Z,45.08
2023-05-18T16:52:58.471Z,44.75
2023-05-18T16:55:26.127Z,44.54
2023-05-18T16:57:53.898Z,44.96
2023-05-18T17:00:21.218Z,45.05
2023-05-18T17:02:48.377Z,45.12
2023-05-18T17:05:21.052Z,45.41
2023-05-18T17:07:49.151Z,45.71
2023-05-18T17:10:16.329Z,45.76
2023-05-18T17:12:46.080Z,45.83
2023-05-18T17:15:17.525Z,45.71
2023-05-18T17:17:47.603Z,45.71
2023-05-18T17:20:14.707Z,45.96
2023-05-18T17:22:41.557Z,46.27
2023-05-18T17:25:08.884Z,46.53
2023-05-18T17:27:35.924Z,46.88
2023-05-18T17:30:03.000Z,47.14
2023-05-18T17:32:30.306Z,47.19
2023-05-18T17:34:57.353Z,47.33
2023-05-18T17:37:24.432Z,47.59
2023-05-18T17:39:51.313Z,47.73
2023-05-18T17:42:18.185Z,48.02
2023-05-18T17:44:47.270Z,48.27
2023-05-18T17:47:14.702Z,48.08
2023-05-18T17:49:41.880Z,48.30
2023-05-18T17:52:08.968Z,48.25
2023-05-18T17:54:35.889Z,48.61
2023-05-18T17:57:02.954Z,48.73
2023-05-18T17:59:30.020Z,48.88
2023-05-18T18:01:56.962Z,48.96
2023-05-18T18:04:23.991Z,48.92
2023-05-18T18:06:53.747Z,49.16
2023-05-18T18:09:21.743Z,49.28
2023-05-18T18:11:48.863Z,49.56
2023-05-18T18:14:16.803Z,49.79
2023-05-18T18:16:44.052Z,49.88
2023-05-18T18:19:11.533Z,50.12
2023-05-18T18:21:38.592Z,50.35
2023-05-18T18:24:05.774Z,50.64
2023-05-18T18:26:32.843Z,50.72
2023-05-18T18:28:59.942Z,51.27
2023-05-18T18:31:27.014Z,51.40
2023-05-18T18:33:54.071Z,52.00
2023-05-18T18:36:21.189Z,52.10
2023-05-18T18:38:48.253Z,52.37
2023-05-18T18:41:16.819Z,52.64
2023-05-18T18:43:44.121Z,52.81
2023-05-18T18:46:11.607Z,52.89
2023-05-18T18:48:38.820Z,52.94
2023-05-18T18:51:05.885Z,53.18
2023-05-18T18:53:33.126Z,53.42
2023-05-18T18:56:00.393Z,53.38
2023-05-18T18:58:27.458Z,53.67
2023-05-18T19:01:14.314Z,53.75
2023-05-18T19:03:42.743Z,54.14
2023-05-18T19:06:10.874Z,54.27
2023-05-18T19:08:37.870Z,54.44
2023-05-18T19:11:05.281Z,54.40
2023-05-18T19:13:36.955Z,54.57
2023-05-18T19:16:08.422Z,54.86
2023-05-18T19:22:14.636Z,54.77
2023-05-18T20:58:32.920Z,58.96
2023-05-18T21:55:17.692Z,60.14
2023-05-18T22:12:01.809Z,60.85
2023-05-18T22:14:49.877Z,60.94
2023-05-18T23:56:34.506Z,62.76
